sensor_id;sensor_type;location;lat;lon;timestamp;P1;durP1;ratioP1;P2;durP2;ratioP2
7843;SDS011;3967;48.702;9.326;2023-02-05T00:00:43;15.83;;;7.73;;
7843;SDS011;3967;48.702;9.326;2023-02-05T00:03:10;14.77;;;7.77;;
7843;SDS011;3967;48.702;9.326;2023-02-05T00:05:37;13.57;;;7.80;;
7843;SDS011;3967;48.702;9.326;2023-02-05T00:08:04;13.67;;;7.87;;
7843;SDS011;3967;48.702;9.326;2023-02-05T00:10:30;14.13;;;7.23;;
7843;SDS011;3967;48.702;9.326;2023-02-05T00:12:57;16.17;;;7.97;;
7843;SDS011;3967;48.702;9.326;2023-02-05T00:15:24;15.43;;;8.30;;
7843;SDS011;3967;48.702;9.326;2023-02-05T00:17:50;12.73;;;7.70;;
7843;SDS011;3967;48.702;9.326;2023-02-05T00:20:17;13.37;;;6.83;;
7843;SDS011;3967;48.702;9.326;2023-02-05T00:22:44;14.97;;;7.93;;
7843;SDS011;3967;48.702;9.326;2023-02-05T00:25:11;10.63;;;7.90;;
7843;SDS011;3967;48.702;9.326;2023-02-05T00:27:37;11.97;;;7.77;;
7843;SDS011;3967;48.702;9.326;2023-02-05T00:30:04;16.07;;;8.20;;
7843;SDS011;3967;48.702;9.326;2023-02-05T00:32:32;14.00;;;7.40;;
7843;SDS011;3967;48.702;9.326;2023-02-05T00:34:58;12.83;;;7.30;;
7843;SDS011;3967;48.702;9.326;2023-02-05T00:37:25;9.13;;;7.40;;
7843;SDS011;3967;48.702;9.326;2023-02-05T00:39:52;12.20;;;7.47;;
7843;SDS011;3967;48.702;9.326;2023-02-05T00:42:18;10.90;;;7.00;;
7843;SDS011;3967;48.702;9.326;2023-02-05T00:44:45;10.27;;;6.73;;
7843;SDS011;3967;48.702;9.326;2023-02-05T00:47:12;9.17;;;6.60;;
7843;SDS011;3967;48.702;9.326;2023-02-05T00:49:39;12.63;;;6.90;;
7843;SDS011;3967;48.702;9.326;2023-02-05T00:52:05;9.93;;;6.43;;
7843;SDS011;3967;48.702;9.326;2023-02-05T00:54:32;14.87;;;7.10;;
7843;SDS011;3967;48.702;9.326;2023-02-05T00:56:59;12.17;;;7.03;;
7843;SDS011;3967;48.702;9.326;2023-02-05T00:59:25;10.77;;;6.97;;
7843;SDS011;3967;48.702;9.326;2023-02-05T01:01:52;10.93;;;6.90;;
7843;SDS011;3967;48.702;9.326;2023-02-05T01:04:19;11.07;;;7.17;;
7843;SDS011;3967;48.702;9.326;2023-02-05T01:06:45;11.53;;;7.67;;
7843;SDS011;3967;48.702;9.326;2023-02-05T01:09:12;15.40;;;7.80;;
7843;SDS011;3967;48.702;9.326;2023-02-05T01:11:39;12.57;;;8.27;;
7843;SDS011;3967;48.702;9.326;2023-02-05T01:14:05;10.57;;;7.47;;
7843;SDS011;3967;48.702;9.326;2023-02-05T01:16:32;13.53;;;7.57;;
7843;SDS011;3967;48.702;9.326;2023-02-05T01:18:59;12.80;;;8.33;;
7843;SDS011;3967;48.702;9.326;2023-02-05T01:21:25;14.87;;;7.80;;
7843;SDS011;3967;48.702;9.326;2023-02-05T01:23:52;16.07;;;8.33;;
7843;SDS011;3967;48.702;9.326;2023-02-05T01:26:20;16.07;;;8.30;;
7843;SDS011;3967;48.702;9.326;2023-02-05T01:28:46;12.10;;;8.00;;
7843;SDS011;3967;48.702;9.326;2023-02-05T01:31:13;15.50;;;8.70;;
7843;SDS011;3967;48.702;9.326;2023-02-05T01:33:41;14.53;;;7.93;;
7843;SDS011;3967;48.702;9.326;2023-02-05T01:36:08;14.57;;;7.10;;
7843;SDS011;3967;48.702;9.326;2023-02-05T01:38:34;15.20;;;8.10;;
7843;SDS011;3967;48.702;9.326;2023-02-05T01:41:01;12.60;;;7.80;;
7843;SDS011;3967;48.702;9.326;2023-02-05T01:43:28;15.97;;;8.23;;
7843;SDS011;3967;48.702;9.326;2023-02-05T01:48:52;13.80;;;8.10;;
7843;SDS011;3967;48.702;9.326;2023-02-05T01:51:21;15.53;;;8.57;;
7843;SDS011;3967;48.702;9.326;2023-02-05T01:53:49;17.03;;;8.73;;
7843;SDS011;3967;48.702;9.326;2023-02-05T01:56:33;14.40;;;8.33;;
7843;SDS011;3967;48.702;9.326;2023-02-05T01:59:13;15.90;;;8.40;;
7843;SDS011;3967;48.702;9.326;2023-02-05T02:01:42;14.17;;;9.03;;
7843;SDS011;3967;48.702;9.326;2023-02-05T02:04:10;14.67;;;8.43;;
7843;SDS011;3967;48.702;9.326;2023-02-05T02:06:42;12.33;;;7.50;;
7843;SDS011;3967;48.702;9.326;2023-02-05T02:09:08;15.43;;;8.83;;
7843;SDS011;3967;48.702;9.326;2023-02-05T02:11:36;17.20;;;8.80;;
7843;SDS011;3967;48.702;9.326;2023-02-05T02:14:06;15.37;;;7.97;;
7843;SDS011;3967;48.702;9.326;2023-02-05T02:16:35;12.90;;;7.40;;
7843;SDS011;3967;48.702;9.326;2023-02-05T02:19:06;17.17;;;8.30;;
7843;SDS011;3967;48.702;9.326;2023-02-05T02:29:56;13.53;;;7.13;;
7843;SDS011;3967;48.702;9.326;2023-02-05T02:35:32;16.87;;;8.30;;
7843;SDS011;3967;48.702;9.326;2023-02-05T02:38:27;16.13;;;7.77;;
7843;SDS011;3967;48.702;9.326;2023-02-05T02:41:12;14.83;;;7.30;;
7843;SDS011;3967;48.702;9.326;2023-02-05T02:43:47;18.13;;;7.70;;
7843;SDS011;3967;48.702;9.326;2023-02-05T02:46:46;15.77;;;7.80;;
7843;SDS011;3967;48.702;9.326;2023-02-05T02:49:21;17.47;;;7.83;;
7843;SDS011;3967;48.702;9.326;2023-02-05T02:51:53;16.30;;;7.50;;
7843;SDS011;3967;48.702;9.326;2023-02-05T02:54:22;14.17;;;7.77;;
7843;SDS011;3967;48.702;9.326;2023-02-05T02:56:51;16.57;;;8.20;;
7843;SDS011;3967;48.702;9.326;2023-02-05T02:59:21;12.83;;;8.07;;
7843;SDS011;3967;48.702;9.326;2023-02-05T03:01:54;15.37;;;8.27;;
7843;SDS011;3967;48.702;9.326;2023-02-05T03:04:27;10.47;;;7.53;;
7843;SDS011;3967;48.702;9.326;2023-02-05T03:07:07;13.57;;;8.83;;
7843;SDS011;3967;48.702;9.326;2023-02-05T03:09:42;16.93;;;8.67;;
7843;SDS011;3967;48.702;9.326;2023-02-05T03:12:17;13.87;;;7.70;;
7843;SDS011;3967;48.702;9.326;2023-02-05T03:14:45;15.43;;;7.73;;
7843;SDS011;3967;48.702;9.326;2023-02-05T03:17:12;11.40;;;8.57;;
7843;SDS011;3967;48.702;9.326;2023-02-05T03:19:47;17.27;;;8.23;;
7843;SDS011;3967;48.702;9.326;2023-02-05T03:22:21;15.33;;;8.60;;
7843;SDS011;3967;48.702;9.326;2023-02-05T03:24:49;15.23;;;7.87;;
7843;SDS011;3967;48.702;9.326;2023-02-05T03:27:16;14.63;;;7.97;;
7843;SDS011;3967;48.702;9.326;2023-02-05T03:29:43;12.23;;;8.40;;
7843;SDS011;3967;48.702;9.326;2023-02-05T03:35:05;15.93;;;8.63;;
7843;SDS011;3967;48.702;9.326;2023-02-05T03:37:55;12.60;;;7.87;;
7843;SDS011;3967;48.702;9.326;2023-02-05T03:46:20;18.57;;;8.23;;
7843;SDS011;3967;48.702;9.326;2023-02-05T03:56:50;16.43;;;9.03;;
7843;SDS011;3967;48.702;9.326;2023-02-05T03:59:24;18.23;;;9.53;;
7843;SDS011;3967;48.702;9.326;2023-02-05T04:01:52;17.90;;;8.97;;
7843;SDS011;3967;48.702;9.326;2023-02-05T04:04:20;17.53;;;8.33;;
7843;SDS011;3967;48.702;9.326;2023-02-05T04:06:47;14.40;;;8.40;;
7843;SDS011;3967;48.702;9.326;2023-02-05T04:09:16;19.70;;;8.63;;
7843;SDS011;3967;48.702;9.326;2023-02-05T04:11:43;17.60;;;9.33;;
7843;SDS011;3967;48.702;9.326;2023-02-05T04:14:09;12.47;;;8.10;;
7843;SDS011;3967;48.702;9.326;2023-02-05T04:16:36;15.17;;;8.20;;
7843;SDS011;3967;48.702;9.326;2023-02-05T04:19:03;17.37;;;8.00;;
7843;SDS011;3967;48.702;9.326;2023-02-05T04:21:30;13.70;;;7.60;;
7843;SDS011;3967;48.702;9.326;2023-02-05T04:23:56;13.60;;;8.47;;
7843;SDS011;3967;48.702;9.326;2023-02-05T04:26:23;13.83;;;8.40;;
7843;SDS011;3967;48.702;9.326;2023-02-05T04:28:50;16.43;;;8.57;;
7843;SDS011;3967;48.702;9.326;2023-02-05T04:31:17;17.43;;;7.90;;
7843;SDS011;3967;48.702;9.326;2023-02-05T04:33:43;11.93;;;7.63;;
7843;SDS011;3967;48.702;9.326;2023-02-05T04:36:10;14.17;;;7.47;;
7843;SDS011;3967;48.702;9.326;2023-02-05T04:38:37;12.23;;;7.13;;
7843;SDS011;3967;48.702;9.326;2023-02-05T04:41:04;14.30;;;7.03;;
7843;SDS011;3967;48.702;9.326;2023-02-05T04:43:30;10.63;;;7.30;;
7843;SDS011;3967;48.702;9.326;2023-02-05T04:45:57;13.83;;;7.70;;
7843;SDS011;3967;48.702;9.326;2023-02-05T04:48:29;15.17;;;8.17;;
7843;SDS011;3967;48.702;9.326;2023-02-05T04:50:56;11.60;;;6.73;;
7843;SDS011;3967;48.702;9.326;2023-02-05T04:53:22;11.17;;;6.27;;
7843;SDS011;3967;48.702;9.326;2023-02-05T04:55:49;13.57;;;6.77;;
7843;SDS011;3967;48.702;9.326;2023-02-05T04:58:16;14.37;;;7.60;;
7843;SDS011;3967;48.702;9.326;2023-02-05T05:00:42;13.50;;;7.50;;
7843;SDS011;3967;48.702;9.326;2023-02-05T05:03:09;11.77;;;6.97;;
7843;SDS011;3967;48.702;9.326;2023-02-05T05:05:36;10.93;;;7.43;;
7843;SDS011;3967;48.702;9.326;2023-02-05T05:08:02;8.70;;;5.87;;
7843;SDS011;3967;48.702;9.326;2023-02-05T05:10:29;7.70;;;5.70;;
7843;SDS011;3967;48.702;9.326;2023-02-05T05:12:56;8.63;;;6.13;;
7843;SDS011;3967;48.702;9.326;2023-02-05T05:15:22;10.93;;;6.50;;
7843;SDS011;3967;48.702;9.326;2023-02-05T05:17:49;8.90;;;6.67;;
7843;SDS011;3967;48.702;9.326;2023-02-05T05:20:16;9.73;;;6.07;;
7843;SDS011;3967;48.702;9.326;2023-02-05T05:22:42;8.13;;;6.03;;
7843;SDS011;3967;48.702;9.326;2023-02-05T05:25:09;12.47;;;7.30;;
7843;SDS011;3967;48.702;9.326;2023-02-05T05:27:36;10.90;;;7.17;;
7843;SDS011;3967;48.702;9.326;2023-02-05T05:30:03;10.03;;;6.73;;
7843;SDS011;3967;48.702;9.326;2023-02-05T05:32:30;10.37;;;7.13;;
7843;SDS011;3967;48.702;9.326;2023-02-05T05:34:57;8.97;;;6.43;;
7843;SDS011;3967;48.702;9.326;2023-02-05T05:37:23;13.47;;;7.20;;
7843;SDS011;3967;48.702;9.326;2023-02-05T05:39:50;10.47;;;7.00;;
7843;SDS011;3967;48.702;9.326;2023-02-05T05:42:36;12.20;;;7.17;;
7843;SDS011;3967;48.702;9.326;2023-02-05T05:45:22;10.23;;;6.60;;
7843;SDS011;3967;48.702;9.326;2023-02-05T05:47:49;8.53;;;6.10;;
7843;SDS011;3967;48.702;9.326;2023-02-05T05:50:15;9.40;;;6.10;;
7843;SDS011;3967;48.702;9.326;2023-02-05T05:52:42;8.90;;;6.23;;
7843;SDS011;3967;48.702;9.326;2023-02-05T05:55:09;9.97;;;7.00;;
7843;SDS011;3967;48.702;9.326;2023-02-05T05:57:35;12.33;;;7.20;;
7843;SDS011;3967;48.702;9.326;2023-02-05T06:00:03;9.37;;;6.90;;
7843;SDS011;3967;48.702;9.326;2023-02-05T06:02:30;11.30;;;6.50;;
7843;SDS011;3967;48.702;9.326;2023-02-05T06:04:57;10.10;;;6.73;;
7843;SDS011;3967;48.702;9.326;2023-02-05T06:07:24;14.57;;;6.73;;
7843;SDS011;3967;48.702;9.326;2023-02-05T06:09:52;10.57;;;6.80;;
7843;SDS011;3967;48.702;9.326;2023-02-05T06:12:18;10.17;;;6.77;;
7843;SDS011;3967;48.702;9.326;2023-02-05T06:14:45;11.53;;;7.03;;
7843;SDS011;3967;48.702;9.326;2023-02-05T06:17:12;10.93;;;6.80;;
7843;SDS011;3967;48.702;9.326;2023-02-05T06:19:38;12.20;;;5.87;;
7843;SDS011;3967;48.702;9.326;2023-02-05T06:22:05;9.50;;;6.07;;
7843;SDS011;3967;48.702;9.326;2023-02-05T06:24:32;7.13;;;5.87;;
7843;SDS011;3967;48.702;9.326;2023-02-05T06:26:58;8.53;;;6.70;;
7843;SDS011;3967;48.702;9.326;2023-02-05T06:29:25;9.90;;;6.10;;
7843;SDS011;3967;48.702;9.326;2023-02-05T06:31:52;9.80;;;5.97;;
7843;SDS011;3967;48.702;9.326;2023-02-05T06:34:19;7.37;;;6.27;;
7843;SDS011;3967;48.702;9.326;2023-02-05T06:36:46;10.60;;;5.30;;
7843;SDS011;3967;48.702;9.326;2023-02-05T06:39:12;12.47;;;6.37;;
7843;SDS011;3967;48.702;9.326;2023-02-05T06:41:39;13.63;;;6.57;;
7843;SDS011;3967;48.702;9.326;2023-02-05T06:44:06;8.40;;;5.73;;
7843;SDS011;3967;48.702;9.326;2023-02-05T06:46:32;9.97;;;6.67;;
7843;SDS011;3967;48.702;9.326;2023-02-05T06:48:59;11.13;;;7.10;;
7843;SDS011;3967;48.702;9.326;2023-02-05T06:51:26;11.03;;;6.63;;
7843;SDS011;3967;48.702;9.326;2023-02-05T06:53:53;9.13;;;5.97;;
7843;SDS011;3967;48.702;9.326;2023-02-05T06:56:22;7.57;;;5.60;;
7843;SDS011;3967;48.702;9.326;2023-02-05T06:58:49;8.37;;;6.43;;
7843;SDS011;3967;48.702;9.326;2023-02-05T07:01:16;8.83;;;6.23;;
7843;SDS011;3967;48.702;9.326;2023-02-05T07:03:43;7.80;;;5.90;;
7843;SDS011;3967;48.702;9.326;2023-02-05T07:06:10;7.30;;;5.63;;
7843;SDS011;3967;48.702;9.326;2023-02-05T07:08:37;11.70;;;6.00;;
7843;SDS011;3967;48.702;9.326;2023-02-05T07:11:04;6.40;;;5.43;;
7843;SDS011;3967;48.702;9.326;2023-02-05T07:13:31;9.93;;;5.73;;
7843;SDS011;3967;48.702;9.326;2023-02-05T07:16:01;11.10;;;6.00;;
7843;SDS011;3967;48.702;9.326;2023-02-05T07:18:29;9.73;;;6.70;;
7843;SDS011;3967;48.702;9.326;2023-02-05T07:20:57;11.23;;;6.97;;
7843;SDS011;3967;48.702;9.326;2023-02-05T07:23:23;11.43;;;6.63;;
7843;SDS011;3967;48.702;9.326;2023-02-05T07:25:50;10.00;;;6.23;;
7843;SDS011;3967;48.702;9.326;2023-02-05T07:28:17;14.37;;;7.03;;
7843;SDS011;3967;48.702;9.326;2023-02-05T07:30:44;13.30;;;5.70;;
7843;SDS011;3967;48.702;9.326;2023-02-05T07:33:12;9.07;;;5.53;;
7843;SDS011;3967;48.702;9.326;2023-02-05T07:35:39;12.57;;;6.97;;
7843;SDS011;3967;48.702;9.326;2023-02-05T07:38:06;7.57;;;5.97;;
7843;SDS011;3967;48.702;9.326;2023-02-05T07:40:32;7.50;;;5.90;;
7843;SDS011;3967;48.702;9.326;2023-02-05T07:42:59;8.63;;;6.27;;
7843;SDS011;3967;48.702;9.326;2023-02-05T07:45:26;9.53;;;6.87;;
7843;SDS011;3967;48.702;9.326;2023-02-05T07:47:53;10.63;;;6.50;;
7843;SDS011;3967;48.702;9.326;2023-02-05T07:50:19;10.03;;;6.13;;
7843;SDS011;3967;48.702;9.326;2023-02-05T07:52:46;9.83;;;6.53;;
7843;SDS011;3967;48.702;9.326;2023-02-05T07:55:13;8.67;;;6.20;;
7843;SDS011;3967;48.702;9.326;2023-02-05T07:57:40;9.20;;;6.57;;
7843;SDS011;3967;48.702;9.326;2023-02-05T08:00:07;10.07;;;6.80;;
7843;SDS011;3967;48.702;9.326;2023-02-05T08:02:34;7.93;;;6.67;;
7843;SDS011;3967;48.702;9.326;2023-02-05T08:05:01;10.63;;;6.70;;
7843;SDS011;3967;48.702;9.326;2023-02-05T08:07:28;9.27;;;6.20;;
7843;SDS011;3967;48.702;9.326;2023-02-05T08:09:54;11.37;;;6.60;;
7843;SDS011;3967;48.702;9.326;2023-02-05T08:12:21;9.93;;;6.93;;
7843;SDS011;3967;48.702;9.326;2023-02-05T08:14:48;9.47;;;7.13;;
7843;SDS011;3967;48.702;9.326;2023-02-05T08:17:15;8.27;;;6.90;;
7843;SDS011;3967;48.702;9.326;2023-02-05T08:19:41;10.37;;;6.63;;
7843;SDS011;3967;48.702;9.326;2023-02-05T08:22:08;9.93;;;6.70;;
7843;SDS011;3967;48.702;9.326;2023-02-05T08:24:35;10.30;;;6.57;;
7843;SDS011;3967;48.702;9.326;2023-02-05T08:27:01;11.57;;;6.40;;
7843;SDS011;3967;48.702;9.326;2023-02-05T08:29:28;10.63;;;7.13;;
7843;SDS011;3967;48.702;9.326;2023-02-05T08:31:55;11.70;;;7.47;;
7843;SDS011;3967;48.702;9.326;2023-02-05T08:34:22;8.50;;;6.67;;
7843;SDS011;3967;48.702;9.326;2023-02-05T08:36:51;12.40;;;7.00;;
7843;SDS011;3967;48.702;9.326;2023-02-05T08:39:18;10.83;;;7.20;;
7843;SDS011;3967;48.702;9.326;2023-02-05T08:41:45;13.30;;;7.57;;
7843;SDS011;3967;48.702;9.326;2023-02-05T08:44:11;12.80;;;7.77;;
7843;SDS011;3967;48.702;9.326;2023-02-05T08:46:41;15.00;;;8.50;;
7843;SDS011;3967;48.702;9.326;2023-02-05T08:49:15;12.93;;;7.70;;
7843;SDS011;3967;48.702;9.326;2023-02-05T08:51:45;12.60;;;8.87;;
7843;SDS011;3967;48.702;9.326;2023-02-05T08:54:11;13.57;;;8.43;;
7843;SDS011;3967;48.702;9.326;2023-02-05T08:56:41;12.33;;;7.87;;
7843;SDS011;3967;48.702;9.326;2023-02-05T08:59:08;11.60;;;8.03;;
7843;SDS011;3967;48.702;9.326;2023-02-05T09:01:36;10.50;;;8.40;;
7843;SDS011;3967;48.702;9.326;2023-02-05T09:04:06;16.47;;;8.40;;
7843;SDS011;3967;48.702;9.326;2023-02-05T09:06:33;16.00;;;7.70;;
7843;SDS011;3967;48.702;9.326;2023-02-05T09:09:00;15.80;;;8.63;;
7843;SDS011;3967;48.702;9.326;2023-02-05T09:11:33;15.47;;;9.00;;
7843;SDS011;3967;48.702;9.326;2023-02-05T09:13:59;13.43;;;8.60;;
7843;SDS011;3967;48.702;9.326;2023-02-05T09:16:26;13.43;;;8.73;;
7843;SDS011;3967;48.702;9.326;2023-02-05T09:18:54;14.57;;;9.10;;
7843;SDS011;3967;48.702;9.326;2023-02-05T09:21:21;15.03;;;9.03;;
7843;SDS011;3967;48.702;9.326;2023-02-05T09:23:49;16.93;;;9.83;;
7843;SDS011;3967;48.702;9.326;2023-02-05T09:26:17;16.70;;;9.33;;
7843;SDS011;3967;48.702;9.326;2023-02-05T09:28:44;15.43;;;9.43;;
7843;SDS011;3967;48.702;9.326;2023-02-05T09:31:14;18.60;;;8.90;;
7843;SDS011;3967;48.702;9.326;2023-02-05T09:33:42;13.40;;;8.73;;
7843;SDS011;3967;48.702;9.326;2023-02-05T09:36:12;19.17;;;9.87;;
7843;SDS011;3967;48.702;9.326;2023-02-05T09:38:41;16.17;;;9.57;;
7843;SDS011;3967;48.702;9.326;2023-02-05T09:41:09;10.90;;;7.33;;
7843;SDS011;3967;48.702;9.326;2023-02-05T09:43:59;14.17;;;8.77;;
7843;SDS011;3967;48.702;9.326;2023-02-05T09:46:47;16.17;;;9.60;;
7843;SDS011;3967;48.702;9.326;2023-02-05T09:54:51;15.50;;;9.53;;
7843;SDS011;3967;48.702;9.326;2023-02-05T09:57:42;15.70;;;8.97;;
7843;SDS011;3967;48.702;9.326;2023-02-05T10:00:15;13.63;;;8.13;;
7843;SDS011;3967;48.702;9.326;2023-02-05T10:02:57;18.27;;;10.40;;
7843;SDS011;3967;48.702;9.326;2023-02-05T10:05:31;19.07;;;9.47;;
7843;SDS011;3967;48.702;9.326;2023-02-05T10:08:08;19.23;;;10.87;;
7843;SDS011;3967;48.702;9.326;2023-02-05T10:10:48;16.53;;;9.70;;
7843;SDS011;3967;48.702;9.326;2023-02-05T10:13:26;17.30;;;9.70;;
7843;SDS011;3967;48.702;9.326;2023-02-05T10:16:22;21.93;;;11.47;;
7843;SDS011;3967;48.702;9.326;2023-02-05T10:21:57;16.03;;;9.93;;
7843;SDS011;3967;48.702;9.326;2023-02-05T10:32:58;16.57;;;10.47;;
7843;SDS011;3967;48.702;9.326;2023-02-05T10:38:13;19.13;;;11.27;;
7843;SDS011;3967;48.702;9.326;2023-02-05T10:46:41;23.67;;;12.03;;
7843;SDS011;3967;48.702;9.326;2023-02-05T10:51:52;25.33;;;14.13;;
7843;SDS011;3967;48.702;9.326;2023-02-05T10:54:25;28.73;;;14.43;;
7843;SDS011;3967;48.702;9.326;2023-02-05T10:56:57;24.47;;;13.83;;
7843;SDS011;3967;48.702;9.326;2023-02-05T10:59:29;26.50;;;14.37;;
7843;SDS011;3967;48.702;9.326;2023-02-05T11:02:00;15.27;;;10.90;;
7843;SDS011;3967;48.702;9.326;2023-02-05T11:07:17;24.03;;;12.33;;
7843;SDS011;3967;48.702;9.326;2023-02-05T11:10:12;20.37;;;11.07;;
7843;SDS011;3967;48.702;9.326;2023-02-05T11:12:52;26.03;;;14.20;;
7843;SDS011;3967;48.702;9.326;2023-02-05T11:17:55;22.50;;;10.70;;
7843;SDS011;3967;48.702;9.326;2023-02-05T11:20:30;25.63;;;12.17;;
7843;SDS011;3967;48.702;9.326;2023-02-05T11:25:53;20.83;;;10.53;;
7843;SDS011;3967;48.702;9.326;2023-02-05T11:28:30;24.10;;;11.80;;
7843;SDS011;3967;48.702;9.326;2023-02-05T11:31:18;22.07;;;11.37;;
7843;SDS011;3967;48.702;9.326;2023-02-05T11:36:34;14.43;;;9.20;;
7843;SDS011;3967;48.702;9.326;2023-02-05T11:41:53;27.50;;;12.17;;
7843;SDS011;3967;48.702;9.326;2023-02-05T11:44:26;20.83;;;10.70;;
7843;SDS011;3967;48.702;9.326;2023-02-05T11:46:58;21.13;;;10.67;;
7843;SDS011;3967;48.702;9.326;2023-02-05T11:49:33;15.97;;;10.30;;
7843;SDS011;3967;48.702;9.326;2023-02-05T11:52:13;16.57;;;10.17;;
7843;SDS011;3967;48.702;9.326;2023-02-05T11:54:50;19.63;;;9.83;;
7843;SDS011;3967;48.702;9.326;2023-02-05T12:00:13;15.90;;;8.60;;
7843;SDS011;3967;48.702;9.326;2023-02-05T12:02:45;19.60;;;11.40;;
7843;SDS011;3967;48.702;9.326;2023-02-05T12:05:18;21.63;;;9.83;;
7843;SDS011;3967;48.702;9.326;2023-02-05T12:07:56;20.40;;;9.57;;
7843;SDS011;3967;48.702;9.326;2023-02-05T12:13:55;19.30;;;9.83;;
7843;SDS011;3967;48.702;9.326;2023-02-05T12:16:38;21.80;;;10.63;;
7843;SDS011;3967;48.702;9.326;2023-02-05T12:19:24;15.17;;;8.03;;
7843;SDS011;3967;48.702;9.326;2023-02-05T12:22:09;17.67;;;8.37;;
7843;SDS011;3967;48.702;9.326;2023-02-05T12:28:23;21.37;;;9.63;;
7843;SDS011;3967;48.702;9.326;2023-02-05T12:31:17;17.50;;;9.17;;
7843;SDS011;3967;48.702;9.326;2023-02-05T13:01:46;15.77;;;8.30;;
7843;SDS011;3967;48.702;9.326;2023-02-05T13:07:29;22.60;;;9.67;;
7843;SDS011;3967;48.702;9.326;2023-02-05T13:10:01;13.03;;;8.53;;
7843;SDS011;3967;48.702;9.326;2023-02-05T13:12:31;15.87;;;9.10;;
7843;SDS011;3967;48.702;9.326;2023-02-05T13:20:38;16.50;;;8.40;;
7843;SDS011;3967;48.702;9.326;2023-02-05T13:23:26;16.40;;;8.07;;
7843;SDS011;3967;48.702;9.326;2023-02-05T13:26:13;22.77;;;9.03;;
7843;SDS011;3967;48.702;9.326;2023-02-05T13:29:03;22.93;;;10.17;;
7843;SDS011;3967;48.702;9.326;2023-02-05T13:31:35;22.40;;;10.87;;
7843;SDS011;3967;48.702;9.326;2023-02-05T13:34:06;17.40;;;10.50;;
7843;SDS011;3967;48.702;9.326;2023-02-05T13:36:44;17.70;;;10.00;;
7843;SDS011;3967;48.702;9.326;2023-02-05T14:01:35;34.10;;;16.37;;
7843;SDS011;3967;48.702;9.326;2023-02-05T14:04:04;62.03;;;25.33;;
7843;SDS011;3967;48.702;9.326;2023-02-05T14:06:41;66.10;;;24.97;;
7843;SDS011;3967;48.702;9.326;2023-02-05T14:09:18;35.03;;;15.53;;
7843;SDS011;3967;48.702;9.326;2023-02-05T14:12:09;17.10;;;8.50;;
7843;SDS011;3967;48.702;9.326;2023-02-05T14:14:39;11.27;;;5.83;;
7843;SDS011;3967;48.702;9.326;2023-02-05T14:19:56;9.23;;;5.77;;
7843;SDS011;3967;48.702;9.326;2023-02-05T14:25:02;9.37;;;6.40;;
7843;SDS011;3967;48.702;9.326;2023-02-05T14:32:59;10.00;;;6.90;;
7843;SDS011;3967;48.702;9.326;2023-02-05T14:35:33;10.07;;;7.37;;
7843;SDS011;3967;48.702;9.326;2023-02-05T14:38:15;51.63;;;25.47;;
7843;SDS011;3967;48.702;9.326;2023-02-05T14:43:39;11.53;;;8.30;;
7843;SDS011;3967;48.702;9.326;2023-02-05T14:46:19;8.20;;;6.40;;
7843;SDS011;3967;48.702;9.326;2023-02-05T14:48:49;5.73;;;4.80;;
7843;SDS011;3967;48.702;9.326;2023-02-05T14:51:24;6.27;;;4.10;;
7843;SDS011;3967;48.702;9.326;2023-02-05T14:54:01;4.67;;;3.37;;
7843;SDS011;3967;48.702;9.326;2023-02-05T14:56:46;3.13;;;2.93;;
7843;SDS011;3967;48.702;9.326;2023-02-05T15:17:34;2.50;;;2.20;;
7843;SDS011;3967;48.702;9.326;2023-02-05T15:20:12;2.63;;;2.20;;
7843;SDS011;3967;48.702;9.326;2023-02-05T15:22:49;2.10;;;1.90;;
7843;SDS011;3967;48.702;9.326;2023-02-05T15:27:56;2.70;;;2.50;;
7843;SDS011;3967;48.702;9.326;2023-02-05T15:30:29;2.33;;;1.97;;
7843;SDS011;3967;48.702;9.326;2023-02-05T15:33:06;2.30;;;2.10;;
7843;SDS011;3967;48.702;9.326;2023-02-05T15:35:41;3.17;;;2.00;;
7843;SDS011;3967;48.702;9.326;2023-02-05T15:38:27;3.27;;;2.10;;
7843;SDS011;3967;48.702;9.326;2023-02-05T15:41:03;3.60;;;2.53;;
7843;SDS011;3967;48.702;9.326;2023-02-05T15:43:32;2.50;;;2.30;;
7843;SDS011;3967;48.702;9.326;2023-02-05T15:46:05;2.73;;;2.53;;
7843;SDS011;3967;48.702;9.326;2023-02-05T15:48:35;2.90;;;2.60;;
7843;SDS011;3967;48.702;9.326;2023-02-05T15:51:17;2.93;;;2.73;;
7843;SDS011;3967;48.702;9.326;2023-02-05T15:53:48;3.23;;;2.93;;
7843;SDS011;3967;48.702;9.326;2023-02-05T15:59:32;3.00;;;2.70;;
7843;SDS011;3967;48.702;9.326;2023-02-05T16:01:36;3.90;;;3.30;;
7843;SDS011;3967;48.702;9.326;2023-02-05T16:06:51;4.30;;;2.93;;
7843;SDS011;3967;48.702;9.326;2023-02-05T16:09:19;3.67;;;3.33;;
7843;SDS011;3967;48.702;9.326;2023-02-05T16:11:47;3.87;;;3.47;;
7843;SDS011;3967;48.702;9.326;2023-02-05T16:19:48;4.23;;;3.83;;
7843;SDS011;3967;48.702;9.326;2023-02-05T16:22:33;5.23;;;4.70;;
7843;SDS011;3967;48.702;9.326;2023-02-05T16:27:59;9.67;;;7.70;;
7843;SDS011;3967;48.702;9.326;2023-02-05T16:30:38;11.87;;;9.47;;
7843;SDS011;3967;48.702;9.326;2023-02-05T16:35:59;10.53;;;8.47;;
7843;SDS011;3967;48.702;9.326;2023-02-05T16:38:28;10.23;;;7.33;;
7843;SDS011;3967;48.702;9.326;2023-02-05T16:40:56;7.50;;;6.47;;
7843;SDS011;3967;48.702;9.326;2023-02-05T16:43:35;9.63;;;6.77;;
7843;SDS011;3967;48.702;9.326;2023-02-05T16:48:37;9.73;;;8.07;;
7843;SDS011;3967;48.702;9.326;2023-02-05T16:51:26;8.77;;;7.57;;
7843;SDS011;3967;48.702;9.326;2023-02-05T16:56:36;6.73;;;6.03;;
7843;SDS011;3967;48.702;9.326;2023-02-05T16:59:18;9.63;;;7.10;;
7843;SDS011;3967;48.702;9.326;2023-02-05T17:01:49;7.30;;;6.53;;
7843;SDS011;3967;48.702;9.326;2023-02-05T17:04:18;8.43;;;6.13;;
7843;SDS011;3967;48.702;9.326;2023-02-05T17:06:54;6.53;;;5.77;;
7843;SDS011;3967;48.702;9.326;2023-02-05T17:09:34;9.37;;;7.03;;
7843;SDS011;3967;48.702;9.326;2023-02-05T17:14:52;26.47;;;14.40;;
7843;SDS011;3967;48.702;9.326;2023-02-05T17:17:28;10.13;;;7.57;;
7843;SDS011;3967;48.702;9.326;2023-02-05T17:22:34;7.10;;;5.67;;
7843;SDS011;3967;48.702;9.326;2023-02-05T17:25:01;9.53;;;7.80;;
7843;SDS011;3967;48.702;9.326;2023-02-05T17:27:32;8.13;;;6.90;;
7843;SDS011;3967;48.702;9.326;2023-02-05T17:30:02;10.73;;;7.87;;
7843;SDS011;3967;48.702;9.326;2023-02-05T17:32:38;8.20;;;7.20;;
7843;SDS011;3967;48.702;9.326;2023-02-05T17:35:15;8.80;;;7.40;;
7843;SDS011;3967;48.702;9.326;2023-02-05T17:37:42;14.17;;;11.17;;
7843;SDS011;3967;48.702;9.326;2023-02-05T17:40:12;10.80;;;8.73;;
7843;SDS011;3967;48.702;9.326;2023-02-05T17:42:39;8.20;;;7.27;;
7843;SDS011;3967;48.702;9.326;2023-02-05T17:45:14;7.90;;;7.10;;
7843;SDS011;3967;48.702;9.326;2023-02-05T17:47:47;9.27;;;8.13;;
7843;SDS011;3967;48.702;9.326;2023-02-05T17:50:15;13.20;;;9.43;;
7843;SDS011;3967;48.702;9.326;2023-02-05T17:52:42;11.27;;;9.53;;
7843;SDS011;3967;48.702;9.326;2023-02-05T17:55:11;8.80;;;7.93;;
7843;SDS011;3967;48.702;9.326;2023-02-05T17:57:40;9.37;;;8.20;;
7843;SDS011;3967;48.702;9.326;2023-02-05T18:02:42;12.07;;;9.67;;
7843;SDS011;3967;48.702;9.326;2023-02-05T18:05:09;10.93;;;9.83;;
7843;SDS011;3967;48.702;9.326;2023-02-05T18:07:43;11.40;;;9.57;;
7843;SDS011;3967;48.702;9.326;2023-02-05T18:10:21;11.70;;;9.30;;
7843;SDS011;3967;48.702;9.326;2023-02-05T18:12:50;11.23;;;9.13;;
7843;SDS011;3967;48.702;9.326;2023-02-05T18:15:18;9.33;;;8.43;;
7843;SDS011;3967;48.702;9.326;2023-02-05T18:17:45;9.33;;;8.23;;
7843;SDS011;3967;48.702;9.326;2023-02-05T18:20:12;10.87;;;9.07;;
7843;SDS011;3967;48.702;9.326;2023-02-05T18:22:41;11.43;;;9.37;;
7843;SDS011;3967;48.702;9.326;2023-02-05T18:25:08;18.57;;;14.60;;
7843;SDS011;3967;48.702;9.326;2023-02-05T18:27:35;21.97;;;15.23;;
7843;SDS011;3967;48.702;9.326;2023-02-05T18:30:02;15.03;;;11.47;;
7843;SDS011;3967;48.702;9.326;2023-02-05T18:32:29;18.10;;;13.93;;
7843;SDS011;3967;48.702;9.326;2023-02-05T18:34:56;12.37;;;11.07;;
7843;SDS011;3967;48.702;9.326;2023-02-05T18:37:23;15.10;;;11.90;;
7843;SDS011;3967;48.702;9.326;2023-02-05T18:39:51;17.97;;;13.03;;
7843;SDS011;3967;48.702;9.326;2023-02-05T18:42:18;20.37;;;15.50;;
7843;SDS011;3967;48.702;9.326;2023-02-05T18:44:45;15.33;;;12.70;;
7843;SDS011;3967;48.702;9.326;2023-02-05T18:47:11;19.67;;;15.17;;
7843;SDS011;3967;48.702;9.326;2023-02-05T18:49:39;17.87;;;13.80;;